Time;durP1;ratioP1;P1;durP2;ratioP2;P2;SDS_P1;SDS_P2;PMS_P1;PMS_P2;Temp;Humidity;BMP_temperature;BMP_pressure;BME280_temperature;BME280_humidity;BME280_pressure;Samples;Min_cycle;Max_cycle;Signal;HPM_P1;HPM_P2
2024/03/10 00:02:31;;;;;;;19.55;14.43;;;;;;;;;;7794419;22;24383;-79
2024/03/10 00:05:34;;;;;;;24.15;15.02;;;;;;;;;;7794851;22;24434;-79
2024/03/10 00:08:36;;;;;;;20.30;14.77;;;;;;;;;;7795654;22;24374;-80
2024/03/10 00:11:37;;;;;;;19.67;14.23;;;;;;;;;;7791092;22;24428;-80
2024/03/10 00:14:39;;;;;;;19.43;14.30;;;;;;;;;;7790484;22;24420;-80
2024/03/10 00:17:41;;;;;;;20.13;14.43;;;;;;;;;;7789821;22;24749;-80
2024/03/10 00:20:45;;;;;;;22.13;14.38;;;;;;;;;;7790098;22;24409;-79
2024/03/10 00:23:47;;;;;;;22.27;13.95;;;;;;;;;;7790342;22;24744;-81
2024/03/10 00:26:49;;;;;;;19.50;13.50;;;;;;;;;;7790163;22;24378;-79
2024/03/10 00:29:51;;;;;;;18.10;13.38;;;;;;;;;;7789289;22;24453;-80
2024/03/10 00:32:55;;;;;;;19.45;14.13;;;;;;;;;;7789534;22;24424;-80
2024/03/10 00:35:58;;;;;;;19.73;13.65;;;;;;;;;;7789280;22;24977;-79
2024/03/10 00:39:00;;;;;;;20.33;14.10;;;;;;;;;;7789159;22;24444;-79
2024/03/10 00:42:02;;;;;;;18.33;13.50;;;;;;;;;;7790555;22;24799;-80
2024/03/10 00:45:04;;;;;;;18.33;13.73;;;;;;;;;;7794926;22;24428;-83
2024/03/10 00:48:06;;;;;;;18.98;14.27;;;;;;;;;;7794337;22;24427;-84
2024/03/10 00:51:09;;;;;;;19.37;14.13;;;;;;;;;;7795794;22;24523;-83
2024/03/10 00:54:11;;;;;;;18.50;13.98;;;;;;;;;;7794413;22;24445;-83
2024/03/10 00:57:12;;;;;;;19.65;13.88;;;;;;;;;;7794683;22;24374;-84
2024/03/10 01:00:14;;;;;;;18.65;13.60;;;;;;;;;;7795184;22;24616;-83
2024/03/10 01:03:17;;;;;;;19.77;14.15;;;;;;;;;;7794559;22;24370;-83
2024/03/10 01:06:19;;;;;;;17.75;13.68;;;;;;;;;;7793962;22;25063;-84
2024/03/10 01:09:21;;;;;;;18.85;14.00;;;;;;;;;;7794792;22;24378;-83
2024/03/10 01:12:23;;;;;;;18.42;14.45;;;;;;;;;;7795394;22;24382;-84
2024/03/10 01:15:24;;;;;;;18.75;14.63;;;;;;;;;;7795597;22;24385;-84
2024/03/10 01:18:26;;;;;;;18.85;14.85;;;;;;;;;;7794762;22;24389;-83
2024/03/10 01:21:29;;;;;;;18.60;14.43;;;;;;;;;;7792291;22;24381;-84
2024/03/10 01:24:31;;;;;;;18.50;14.50;;;;;;;;;;7792557;22;24444;-84
2024/03/10 01:27:32;;;;;;;18.45;15.00;;;;;;;;;;7794206;22;24624;-83
2024/03/10 01:30:34;;;;;;;17.23;13.68;;;;;;;;;;7793773;22;24816;-83
2024/03/10 01:33:36;;;;;;;18.20;13.98;;;;;;;;;;7794169;22;24448;-84
2024/03/10 01:36:39;;;;;;;17.83;15.02;;;;;;;;;;7794523;22;24386;-83
2024/03/10 01:39:40;;;;;;;18.42;14.30;;;;;;;;;;7795016;22;24524;-84
2024/03/10 01:42:42;;;;;;;18.67;14.17;;;;;;;;;;7794449;22;24374;-84
2024/03/10 01:45:45;;;;;;;18.02;14.52;;;;;;;;;;7794421;22;24401;-84
2024/03/10 01:48:46;;;;;;;19.77;14.95;;;;;;;;;;7794561;22;24374;-83
2024/03/10 01:51:49;;;;;;;18.75;14.98;;;;;;;;;;7794878;22;24385;-83
2024/03/10 01:54:52;;;;;;;20.00;15.60;;;;;;;;;;7793423;22;24428;-80
2024/03/10 01:57:53;;;;;;;22.58;15.65;;;;;;;;;;7793491;22;24972;-80
2024/03/10 02:00:55;;;;;;;20.98;15.70;;;;;;;;;;7794786;22;24416;-80
2024/03/10 02:03:57;;;;;;;21.35;15.23;;;;;;;;;;7793651;22;24413;-80
2024/03/10 02:07:00;;;;;;;21.13;16.38;;;;;;;;;;7794089;22;24767;-80
2024/03/10 02:10:02;;;;;;;21.07;16.53;;;;;;;;;;7793544;22;24385;-80
2024/03/10 02:13:05;;;;;;;22.60;17.13;;;;;;;;;;7793147;22;24402;-80
2024/03/10 02:16:07;;;;;;;21.92;16.42;;;;;;;;;;7793734;22;24408;-80
2024/03/10 02:19:09;;;;;;;22.95;17.42;;;;;;;;;;7793606;22;24437;-80
2024/03/10 02:22:12;;;;;;;22.33;16.88;;;;;;;;;;7793452;22;24378;-80
2024/03/10 02:25:13;;;;;;;21.90;16.38;;;;;;;;;;7793988;22;24370;-80
2024/03/10 02:28:23;;;;;;;22.33;17.10;;;;;;;;;;7793175;22;24365;-80
2024/03/10 02:48:06;;;;;;;20.73;14.93;;;;;;;;;;7792439;22;24507;-80
2024/03/10 02:51:08;;;;;;;18.55;14.20;;;;;;;;;;7793010;22;24426;-80
2024/03/10 02:54:10;;;;;;;20.25;14.50;;;;;;;;;;7792685;22;24408;-79
2024/03/10 02:57:12;;;;;;;20.80;15.20;;;;;;;;;;7793863;22;24386;-80
2024/03/10 03:00:16;;;;;;;18.73;14.60;;;;;;;;;;7792512;22;24378;-80
2024/03/10 03:03:20;;;;;;;18.55;14.68;;;;;;;;;;7791953;22;24401;-83
2024/03/10 03:06:22;;;;;;;20.20;14.93;;;;;;;;;;7792853;22;24764;-83
2024/03/10 03:09:23;;;;;;;18.65;14.68;;;;;;;;;;7793276;22;24388;-83
2024/03/10 03:12:25;;;;;;;18.90;14.52;;;;;;;;;;7794305;22;24420;-83
2024/03/10 03:15:29;;;;;;;19.05;14.45;;;;;;;;;;7793516;22;24382;-83
2024/03/10 03:18:31;;;;;;;21.00;14.45;;;;;;;;;;7794227;22;24783;-83
2024/03/10 03:21:33;;;;;;;19.63;14.55;;;;;;;;;;7793259;22;24596;-83
2024/03/10 03:24:36;;;;;;;18.65;14.13;;;;;;;;;;7792485;22;24775;-83
2024/03/10 03:27:38;;;;;;;21.85;15.30;;;;;;;;;;7794311;22;24955;-82
2024/03/10 03:30:42;;;;;;;20.43;14.90;;;;;;;;;;7793743;22;24668;-83
2024/03/10 03:33:43;;;;;;;21.80;15.15;;;;;;;;;;7796231;22;24448;-82
2024/03/10 03:36:45;;;;;;;22.98;15.93;;;;;;;;;;7796608;22;24382;-83
2024/03/10 03:39:47;;;;;;;22.63;15.38;;;;;;;;;;7795893;22;24417;-82
2024/03/10 03:42:48;;;;;;;22.00;15.48;;;;;;;;;;7796008;22;24820;-82
2024/03/10 03:45:51;;;;;;;20.83;15.00;;;;;;;;;;7796020;22;24401;-83
2024/03/10 03:48:53;;;;;;;20.08;14.40;;;;;;;;;;7796403;22;24444;-82
2024/03/10 03:51:55;;;;;;;21.80;14.93;;;;;;;;;;7796033;22;24476;-82
2024/03/10 03:54:57;;;;;;;21.75;15.13;;;;;;;;;;7795913;22;24397;-83
2024/03/10 03:57:58;;;;;;;21.17;14.88;;;;;;;;;;7795880;22;24423;-83
2024/03/10 04:01:04;;;;;;;21.90;14.82;;;;;;;;;;7796230;22;24396;-83
2024/03/10 04:04:06;;;;;;;20.25;14.52;;;;;;;;;;7795746;22;24462;-83
2024/03/10 04:07:08;;;;;;;22.20;14.90;;;;;;;;;;7795722;22;24377;-83
2024/03/10 04:10:10;;;;;;;21.35;15.35;;;;;;;;;;7795747;22;24378;-83
2024/03/10 04:13:12;;;;;;;20.38;14.07;;;;;;;;;;7795683;22;24393;-83
2024/03/10 04:16:14;;;;;;;20.75;14.57;;;;;;;;;;7795867;22;24596;-83
2024/03/10 04:19:16;;;;;;;22.10;14.75;;;;;;;;;;7796603;22;24412;-83
2024/03/10 04:22:19;;;;;;;22.80;14.68;;;;;;;;;;7796100;22;24412;-84
2024/03/10 04:25:21;;;;;;;22.40;14.35;;;;;;;;;;7796771;22;24377;-84
2024/03/10 04:28:23;;;;;;;20.17;13.57;;;;;;;;;;7796790;22;24416;-83
2024/03/10 04:31:26;;;;;;;19.63;13.70;;;;;;;;;;7796058;22;24991;-84
2024/03/10 04:34:27;;;;;;;21.17;13.43;;;;;;;;;;7795540;22;24392;-83
2024/03/10 04:37:29;;;;;;;20.10;13.52;;;;;;;;;;7796282;22;24403;-84
2024/03/10 04:40:31;;;;;;;19.42;13.13;;;;;;;;;;7796182;22;24358;-83
2024/03/10 04:43:32;;;;;;;19.63;13.32;;;;;;;;;;7794567;22;24408;-83
2024/03/10 04:46:36;;;;;;;19.60;12.63;;;;;;;;;;7794739;22;24424;-83
2024/03/10 04:49:39;;;;;;;22.20;13.20;;;;;;;;;;7795012;22;24825;-82
2024/03/10 04:52:41;;;;;;;20.55;12.70;;;;;;;;;;7795253;22;24449;-82
2024/03/10 04:55:43;;;;;;;19.38;12.82;;;;;;;;;;7794944;22;24624;-83
2024/03/10 04:58:45;;;;;;;21.30;13.68;;;;;;;;;;7794923;22;24687;-82
2024/03/10 05:01:48;;;;;;;16.23;11.40;;;;;;;;;;7794520;22;24385;-83
2024/03/10 05:04:50;;;;;;;15.98;11.38;;;;;;;;;;7794324;22;24786;-83
2024/03/10 05:07:51;;;;;;;16.08;10.77;;;;;;;;;;7795570;22;24519;-83
2024/03/10 05:10:53;;;;;;;17.60;11.15;;;;;;;;;;7795436;22;24759;-83
2024/03/10 05:13:55;;;;;;;14.93;10.32;;;;;;;;;;7795176;22;24636;-82
2024/03/10 05:16:59;;;;;;;13.98;9.88;;;;;;;;;;7795103;22;24370;-83
2024/03/10 05:20:01;;;;;;;14.98;9.77;;;;;;;;;;7794810;22;24987;-82
2024/03/10 05:23:03;;;;;;;13.07;9.02;;;;;;;;;;7794274;22;24378;-82
2024/03/10 05:26:05;;;;;;;12.05;8.48;;;;;;;;;;7795077;22;24390;-82
2024/03/10 05:29:06;;;;;;;12.18;8.20;;;;;;;;;;7794201;22;24382;-82
2024/03/10 05:32:09;;;;;;;11.25;7.78;;;;;;;;;;7795046;22;24439;-82
2024/03/10 05:35:11;;;;;;;11.45;7.45;;;;;;;;;;7794566;22;24427;-82
2024/03/10 05:38:15;;;;;;;10.68;6.30;;;;;;;;;;7794554;22;24782;-82
2024/03/10 05:41:17;;;;;;;10.00;6.03;;;;;;;;;;7794643;22;24389;-82
2024/03/10 05:44:20;;;;;;;7.55;5.50;;;;;;;;;;7794929;22;24374;-82
2024/03/10 05:47:27;;;;;;;9.60;5.53;;;;;;;;;;7794414;22;24400;-81
2024/03/10 05:50:29;;;;;;;9.32;5.28;;;;;;;;;;7794942;22;24449;-81
2024/03/10 05:53:30;;;;;;;8.30;5.23;;;;;;;;;;7793624;22;24458;-82
2024/03/10 05:56:33;;;;;;;8.45;4.90;;;;;;;;;;7794466;22;24389;-82
2024/03/10 05:59:34;;;;;;;7.80;4.10;;;;;;;;;;7793987;22;24493;-82
2024/03/10 06:02:37;;;;;;;5.97;3.95;;;;;;;;;;7795030;22;24401;-82
2024/03/10 06:05:39;;;;;;;7.22;3.90;;;;;;;;;;7794018;22;24382;-82
2024/03/10 06:08:40;;;;;;;4.45;3.53;;;;;;;;;;7794148;22;24432;-84
2024/03/10 06:11:42;;;;;;;5.47;3.20;;;;;;;;;;7793950;22;24371;-83
2024/03/10 06:14:44;;;;;;;6.20;3.33;;;;;;;;;;7794535;22;24627;-83
2024/03/10 06:18:03;;;;;;;5.03;3.40;;;;;;;;;;7793709;22;24385;-82
2024/03/10 06:27:43;;;;;;;4.38;3.28;;;;;;;;;;7793648;22;24382;-83
2024/03/10 06:30:46;;;;;;;6.83;3.30;;;;;;;;;;7794117;22;24766;-84
2024/03/10 06:33:49;;;;;;;5.43;3.58;;;;;;;;;;7793016;22;24428;-81
2024/03/10 06:36:51;;;;;;;4.95;3.10;;;;;;;;;;7793732;22;24420;-82
2024/03/10 06:39:53;;;;;;;4.75;3.30;;;;;;;;;;7794201;22;24544;-84
2024/03/10 06:42:54;;;;;;;4.53;3.10;;;;;;;;;;7794167;22;24378;-84
2024/03/10 06:45:56;;;;;;;4.20;2.97;;;;;;;;;;7794501;22;24523;-84
2024/03/10 06:48:59;;;;;;;4.32;2.92;;;;;;;;;;7794141;22;24481;-84
2024/03/10 06:52:01;;;;;;;6.15;2.80;;;;;;;;;;7793992;22;24389;-84
2024/03/10 06:55:03;;;;;;;5.82;2.70;;;;;;;;;;7793126;22;24775;-84
2024/03/10 06:58:05;;;;;;;4.85;2.13;;;;;;;;;;7794615;22;24461;-85
2024/03/10 07:01:07;;;;;;;3.85;2.50;;;;;;;;;;7795608;22;24381;-85
2024/03/10 07:04:10;;;;;;;2.97;2.10;;;;;;;;;;7797570;22;24374;-84
2024/03/10 07:07:12;;;;;;;4.00;2.23;;;;;;;;;;7796300;22;24385;-84
2024/03/10 07:10:14;;;;;;;4.82;2.35;;;;;;;;;;7797141;22;24354;-83
2024/03/10 07:13:18;;;;;;;4.38;1.83;;;;;;;;;;7797046;22;25020;-84
2024/03/10 07:16:20;;;;;;;5.78;2.10;;;;;;;;;;7796029;22;24469;-83
2024/03/10 07:19:23;;;;;;;4.47;1.67;;;;;;;;;;7795770;22;24369;-83
2024/03/10 07:22:24;;;;;;;4.05;1.73;;;;;;;;;;7795230;22;24524;-83
2024/03/10 07:25:26;;;;;;;4.15;1.50;;;;;;;;;;7796634;22;24362;-83
2024/03/10 07:28:27;;;;;;;5.60;1.83;;;;;;;;;;7800419;22;24366;-82
2024/03/10 07:31:29;;;;;;;4.00;1.50;;;;;;;;;;7798572;22;24963;-83
2024/03/10 07:34:33;;;;;;;4.97;1.67;;;;;;;;;;7800066;22;24366;-83
2024/03/10 07:37:35;;;;;;;2.80;1.30;;;;;;;;;;7796684;22;24374;-83
2024/03/10 07:40:37;;;;;;;3.95;1.30;;;;;;;;;;7796989;22;24413;-83
2024/03/10 07:43:39;;;;;;;3.17;1.45;;;;;;;;;;7796779;22;24369;-83
2024/03/10 07:46:41;;;;;;;3.25;1.27;;;;;;;;;;7795627;22;24432;-84
2024/03/10 07:49:43;;;;;;;3.80;1.02;;;;;;;;;;7796073;22;25041;-83
2024/03/10 07:52:47;;;;;;;2.45;1.10;;;;;;;;;;7795196;22;24416;-82
2024/03/10 07:55:48;;;;;;;4.97;1.00;;;;;;;;;;7796260;22;24378;-81
2024/03/10 07:58:50;;;;;;;4.22;1.13;;;;;;;;;;7796266;22;24378;-82
2024/03/10 08:01:52;;;;;;;2.15;0.90;;;;;;;;;;7795942;22;24374;-81
2024/03/10 08:04:55;;;;;;;3.00;1.10;;;;;;;;;;7795566;22;24374;-82
2024/03/10 08:07:57;;;;;;;1.73;1.10;;;;;;;;;;7795622;22;24444;-81
2024/03/10 08:10:58;;;;;;;2.90;1.15;;;;;;;;;;7794957;22;24751;-81
2024/03/10 08:14:01;;;;;;;3.03;1.17;;;;;;;;;;7795242;22;24451;-81
2024/03/10 08:17:02;;;;;;;3.20;1.10;;;;;;;;;;7795866;22;24405;-81
2024/03/10 08:20:07;;;;;;;3.70;1.20;;;;;;;;;;7795302;22;24424;-81
2024/03/10 08:23:08;;;;;;;3.83;1.08;;;;;;;;;;7794844;22;24442;-81
2024/03/10 08:26:10;;;;;;;2.60;1.10;;;;;;;;;;7795868;22;24428;-82
2024/03/10 08:29:12;;;;;;;3.45;1.15;;;;;;;;;;7795318;22;24624;-82
2024/03/10 08:32:14;;;;;;;3.25;1.20;;;;;;;;;;7795431;22;24794;-81
2024/03/10 08:35:17;;;;;;;2.72;1.35;;;;;;;;;;7794422;22;24412;-82
2024/03/10 08:38:19;;;;;;;3.67;1.60;;;;;;;;;;7795930;22;24802;-81
2024/03/10 08:41:21;;;;;;;3.60;1.37;;;;;;;;;;7794746;22;24469;-81
2024/03/10 08:44:23;;;;;;;2.73;1.40;;;;;;;;;;7795129;22;24390;-82
2024/03/10 08:47:25;;;;;;;3.85;1.55;;;;;;;;;;7795117;22;24586;-82
2024/03/10 08:50:29;;;;;;;2.40;1.20;;;;;;;;;;7794864;22;24674;-85
2024/03/10 08:53:30;;;;;;;3.40;1.70;;;;;;;;;;7795039;22;24436;-83
2024/03/10 08:56:32;;;;;;;5.40;1.65;;;;;;;;;;7794894;22;24441;-82
2024/03/10 08:59:34;;;;;;;2.97;1.50;;;;;;;;;;7795338;22;24425;-82
2024/03/10 09:02:36;;;;;;;4.43;1.80;;;;;;;;;;7794430;22;24382;-86
2024/03/10 09:05:39;;;;;;;3.63;1.60;;;;;;;;;;7795172;22;24381;-85
2024/03/10 09:08:41;;;;;;;3.58;1.70;;;;;;;;;;7795142;22;24389;-82
2024/03/10 09:11:43;;;;;;;5.45;1.70;;;;;;;;;;7793401;22;24592;-83
2024/03/10 09:14:44;;;;;;;3.83;1.80;;;;;;;;;;7798037;22;24382;-83
2024/03/10 09:17:46;;;;;;;3.53;1.60;;;;;;;;;;7796573;22;24374;-84
2024/03/10 09:20:50;;;;;;;6.03;1.90;;;;;;;;;;7794602;22;24817;-84
2024/03/10 09:23:52;;;;;;;3.50;1.60;;;;;;;;;;7794535;22;24370;-84
2024/03/10 09:26:56;;;;;;;3.97;1.73;;;;;;;;;;7795095;22;24427;-84
2024/03/10 09:29:58;;;;;;;4.75;1.88;;;;;;;;;;7794859;22;24382;-82
2024/03/10 09:32:59;;;;;;;4.20;1.77;;;;;;;;;;7796136;22;24797;-83
2024/03/10 09:36:05;;;;;;;4.07;1.50;;;;;;;;;;7797427;22;24397;-84
2024/03/10 09:39:12;;;;;;;4.28;2.05;;;;;;;;;;7796245;22;24389;-84
2024/03/10 09:42:14;;;;;;;4.75;1.77;;;;;;;;;;7794641;22;24385;-84
2024/03/10 09:45:16;;;;;;;3.92;1.50;;;;;;;;;;7795056;22;24787;-84
2024/03/10 09:48:18;;;;;;;5.47;1.75;;;;;;;;;;7795175;22;24393;-85
2024/03/10 09:51:21;;;;;;;3.30;1.50;;;;;;;;;;7794859;22;24549;-85
2024/03/10 09:54:23;;;;;;;4.25;1.63;;;;;;;;;;7795337;22;24462;-85
2024/03/10 09:57:25;;;;;;;7.70;1.88;;;;;;;;;;7794619;22;24437;-86
2024/03/10 10:00:28;;;;;;;5.03;1.75;;;;;;;;;;7795095;22;24416;-86
2024/03/10 10:03:29;;;;;;;7.38;1.90;;;;;;;;;;7794120;22;24378;-86
2024/03/10 10:06:32;;;;;;;4.00;1.83;;;;;;;;;;7794414;22;24433;-87
2024/03/10 10:09:36;;;;;;;4.45;2.00;;;;;;;;;;7794574;22;25032;-86
2024/03/10 10:12:40;;;;;;;9.23;2.27;;;;;;;;;;7794789;22;24386;-86
2024/03/10 10:15:46;;;;;;;5.90;2.10;;;;;;;;;;7793933;22;24444;-87
2024/03/10 10:18:49;;;;;;;4.93;2.40;;;;;;;;;;7794963;22;24464;-85
2024/03/10 10:21:52;;;;;;;4.75;2.00;;;;;;;;;;7794324;22;24388;-86
2024/03/10 10:25:02;;;;;;;5.90;2.13;;;;;;;;;;7794468;22;24394;-86
2024/03/10 10:28:04;;;;;;;4.28;1.88;;;;;;;;;;7793111;22;24588;-87
2024/03/10 10:31:13;;;;;;;5.47;2.28;;;;;;;;;;7794819;22;24572;-87
2024/03/10 10:34:14;;;;;;;6.20;2.28;;;;;;;;;;7794056;22;24374;-85
2024/03/10 10:37:17;;;;;;;5.35;2.05;;;;;;;;;;7794794;22;24366;-86
2024/03/10 10:40:22;;;;;;;5.60;2.17;;;;;;;;;;7793666;22;24766;-84
2024/03/10 10:43:24;;;;;;;4.95;2.13;;;;;;;;;;7794850;22;24481;-86
2024/03/10 10:46:27;;;;;;;11.30;2.00;;;;;;;;;;7795199;22;24354;-85
2024/03/10 10:49:31;;;;;;;5.15;1.90;;;;;;;;;;7793706;22;24397;-87
2024/03/10 10:52:34;;;;;;;7.97;2.38;;;;;;;;;;7795602;22;24416;-86
2024/03/10 10:55:39;;;;;;;4.53;1.63;;;;;;;;;;7794562;22;24416;-86
2024/03/10 10:58:43;;;;;;;5.45;1.70;;;;;;;;;;7794375;22;24432;-85
2024/03/10 11:01:46;;;;;;;4.97;1.90;;;;;;;;;;7794862;22;24366;-84
2024/03/10 11:04:47;;;;;;;5.88;1.55;;;;;;;;;;7794239;22;24450;-85
2024/03/10 11:07:51;;;;;;;5.65;1.83;;;;;;;;;;7795204;22;24378;-86
2024/03/10 11:10:52;;;;;;;5.20;2.05;;;;;;;;;;7798497;22;24389;-86
2024/03/10 11:13:54;;;;;;;6.88;1.50;;;;;;;;;;7796740;22;24381;-77
2024/03/10 11:17:16;;;;;;;6.28;2.05;;;;;;;;;;7793578;22;24447;-79
2024/03/10 11:20:18;;;;;;;5.35;2.00;;;;;;;;;;7793753;22;24622;-77
2024/03/10 11:23:26;;;;;;;8.40;2.10;;;;;;;;;;7792899;22;24423;-77
2024/03/10 11:26:27;;;;;;;6.78;2.30;;;;;;;;;;7793115;22;24736;-78
2024/03/10 11:29:29;;;;;;;4.95;1.90;;;;;;;;;;7792527;22;24424;-77
2024/03/10 11:32:33;;;;;;;3.40;1.67;;;;;;;;;;7794039;22;24837;-77
2024/03/10 11:35:35;;;;;;;9.50;1.90;;;;;;;;;;7792999;22;24378;-79
2024/03/10 11:38:38;;;;;;;7.32;2.40;;;;;;;;;;7792874;22;24378;-78
2024/03/10 11:41:40;;;;;;;4.33;1.70;;;;;;;;;;7792838;22;24386;-82
2024/03/10 11:44:42;;;;;;;4.70;1.57;;;;;;;;;;7793446;22;24784;-81
2024/03/10 11:47:44;;;;;;;3.63;1.60;;;;;;;;;;7793669;22;24378;-80
2024/03/10 11:50:45;;;;;;;4.00;1.70;;;;;;;;;;7793411;22;24378;-80
2024/03/10 11:53:48;;;;;;;3.65;1.70;;;;;;;;;;7795246;22;24382;-79
2024/03/10 11:56:52;;;;;;;4.13;1.83;;;;;;;;;;7792832;22;24436;-79
2024/03/10 11:59:54;;;;;;;2.83;1.70;;;;;;;;;;7795451;22;24627;-79
2024/03/10 12:02:56;;;;;;;3.78;2.30;;;;;;;;;;7795258;22;24592;-80
2024/03/10 12:05:58;;;;;;;3.45;1.95;;;;;;;;;;7795200;22;24397;-79
2024/03/10 12:09:07;;;;;;;3.70;2.60;;;;;;;;;;7796005;22;24401;-79
2024/03/10 12:12:13;;;;;;;2.97;2.60;;;;;;;;;;7795960;22;24382;-80
2024/03/10 12:15:17;;;;;;;4.15;3.03;;;;;;;;;;7795910;22;24645;-79
2024/03/10 12:18:19;;;;;;;3.78;2.80;;;;;;;;;;7796614;22;24385;-80
2024/03/10 12:21:27;;;;;;;3.60;2.58;;;;;;;;;;7795620;22;24401;-80
2024/03/10 12:24:32;;;;;;;3.30;2.83;;;;;;;;;;7796867;22;24388;-86
2024/03/10 12:27:34;;;;;;;4.00;2.92;;;;;;;;;;7796302;22;24589;-85
2024/03/10 12:30:36;;;;;;;3.35;2.78;;;;;;;;;;7796428;22;24374;-86
2024/03/10 12:33:37;;;;;;;3.20;2.90;;;;;;;;;;7797090;22;24385;-88
2024/03/10 12:36:39;;;;;;;3.92;3.20;;;;;;;;;;7796098;22;24390;-87
2024/03/10 12:39:45;;;;;;;5.72;4.20;;;;;;;;;;7796593;22;24378;-87
2024/03/10 12:42:47;;;;;;;5.22;3.80;;;;;;;;;;7797865;22;24375;-89
2024/03/10 12:45:49;;;;;;;4.05;3.63;;;;;;;;;;7798375;22;24378;-89
2024/03/10 12:48:52;;;;;;;4.43;3.65;;;;;;;;;;7798613;22;24378;-93
2024/03/10 12:51:54;;;;;;;4.28;3.53;;;;;;;;;;7798340;22;24377;-91
2024/03/10 12:54:57;;;;;;;3.65;3.00;;;;;;;;;;7797815;22;24408;-90
2024/03/10 12:57:59;;;;;;;3.22;2.90;;;;;;;;;;7795842;22;24390;-88
2024/03/10 13:01:00;;;;;;;3.53;2.80;;;;;;;;;;7795354;22;24444;-89
2024/03/10 13:04:03;;;;;;;2.93;2.60;;;;;;;;;;7794428;22;24867;-85
2024/03/10 13:07:05;;;;;;;2.50;2.00;;;;;;;;;;7795345;22;24412;-86
2024/03/10 13:10:10;;;;;;;2.80;2.50;;;;;;;;;;7795477;22;24382;-88
2024/03/10 13:13:12;;;;;;;2.97;2.20;;;;;;;;;;7795606;22;24401;-88
2024/03/10 13:16:14;;;;;;;3.17;2.10;;;;;;;;;;7795275;22;24382;-88
2024/03/10 13:19:16;;;;;;;3.92;2.10;;;;;;;;;;7795880;22;24358;-87
2024/03/10 13:22:18;;;;;;;3.60;2.38;;;;;;;;;;7795800;22;24427;-87
2024/03/10 13:25:21;;;;;;;2.83;1.90;;;;;;;;;;7795749;22;24386;-87
2024/03/10 13:28:23;;;;;;;4.70;1.90;;;;;;;;;;7796154;22;24408;-85
2024/03/10 13:31:25;;;;;;;2.50;2.00;;;;;;;;;;7795268;22;24421;-85
2024/03/10 13:34:28;;;;;;;2.70;2.10;;;;;;;;;;7794625;22;24750;-86
2024/03/10 13:37:31;;;;;;;2.92;2.13;;;;;;;;;;7795405;22;24380;-87
2024/03/10 13:40:34;;;;;;;3.03;2.20;;;;;;;;;;7794514;22;24381;-85
2024/03/10 13:43:36;;;;;;;4.50;2.20;;;;;;;;;;7795004;22;24649;-84
2024/03/10 13:46:38;;;;;;;3.13;2.25;;;;;;;;;;7795352;22;24367;-83
2024/03/10 13:49:43;;;;;;;4.10;2.28;;;;;;;;;;7794192;22;24450;-83
2024/03/10 13:52:44;;;;;;;2.95;2.10;;;;;;;;;;7797741;22;24664;-83
2024/03/10 13:55:47;;;;;;;3.03;2.33;;;;;;;;;;7797052;22;24457;-83
2024/03/10 13:58:49;;;;;;;3.17;1.98;;;;;;;;;;7794936;22;24769;-83
2024/03/10 14:01:51;;;;;;;2.97;2.10;;;;;;;;;;7795117;22;24433;-83
2024/03/10 14:04:54;;;;;;;3.65;2.85;;;;;;;;;;7793786;22;24432;-83
2024/03/10 14:07:56;;;;;;;2.97;2.28;;;;;;;;;;7794029;22;24413;-83
2024/03/10 14:10:58;;;;;;;2.88;2.20;;;;;;;;;;7794502;22;24755;-82
2024/03/10 14:14:00;;;;;;;3.20;2.70;;;;;;;;;;7795072;22;24386;-83
2024/03/10 14:17:03;;;;;;;3.42;3.05;;;;;;;;;;7794506;22;24383;-83
2024/03/10 14:20:13;;;;;;;3.30;2.80;;;;;;;;;;7794387;22;24412;-82
2024/03/10 14:23:15;;;;;;;2.72;2.38;;;;;;;;;;7793951;22;24374;-82
2024/03/10 14:26:18;;;;;;;3.13;2.10;;;;;;;;;;7794392;22;24367;-82
2024/03/10 14:29:20;;;;;;;2.75;1.95;;;;;;;;;;7794275;22;24744;-83
2024/03/10 14:32:22;;;;;;;3.38;2.60;;;;;;;;;;7794087;22;24809;-82
2024/03/10 14:35:24;;;;;;;3.67;2.35;;;;;;;;;;7792614;22;24429;-82
2024/03/10 14:38:25;;;;;;;3.20;2.90;;;;;;;;;;7792020;22;24386;-82
2024/03/10 14:41:28;;;;;;;4.20;3.25;;;;;;;;;;7793103;22;24416;-83
2024/03/10 14:44:30;;;;;;;4.20;3.80;;;;;;;;;;7793783;22;24400;-82
2024/03/10 14:47:31;;;;;;;4.20;3.80;;;;;;;;;;7793772;22;24370;-82
2024/03/10 14:50:33;;;;;;;4.65;4.25;;;;;;;;;;7792963;22;24580;-82
2024/03/10 14:53:35;;;;;;;3.78;3.00;;;;;;;;;;7793549;22;24456;-82
2024/03/10 14:56:38;;;;;;;3.75;2.72;;;;;;;;;;7792998;22;24386;-82
2024/03/10 14:59:40;;;;;;;2.97;1.83;;;;;;;;;;7792843;22;24428;-83
2024/03/10 15:02:43;;;;;;;1.80;1.60;;;;;;;;;;7793112;22;24382;-82
2024/03/10 15:05:49;;;;;;;2.50;1.67;;;;;;;;;;7792917;22;24797;-83
2024/03/10 15:08:50;;;;;;;2.40;1.67;;;;;;;;;;7793329;22;24976;-83
2024/03/10 15:11:54;;;;;;;2.45;1.50;;;;;;;;;;7793060;22;24624;-85
2024/03/10 15:14:56;;;;;;;2.20;1.60;;;;;;;;;;7793861;22;24512;-83
2024/03/10 15:17:58;;;;;;;1.67;1.58;;;;;;;;;;7793481;22;24386;-82
2024/03/10 15:21:04;;;;;;;1.60;1.50;;;;;;;;;;7792537;22;24587;-83
2024/03/10 15:24:06;;;;;;;2.10;1.50;;;;;;;;;;7792190;22;24389;-82
2024/03/10 15:27:09;;;;;;;1.85;1.70;;;;;;;;;;7792750;22;24416;-83
2024/03/10 15:30:14;;;;;;;1.90;1.75;;;;;;;;;;7796164;22;24405;-83
2024/03/10 15:33:16;;;;;;;2.50;2.00;;;;;;;;;;7795528;22;24581;-83
2024/03/10 15:36:19;;;;;;;2.60;2.00;;;;;;;;;;7795434;22;24782;-83
2024/03/10 15:39:24;;;;;;;4.80;3.35;;;;;;;;;;7795275;22;24732;-83
2024/03/10 15:42:29;;;;;;;2.40;2.10;;;;;;;;;;7795243;22;24573;-82
2024/03/10 15:45:34;;;;;;;2.22;1.90;;;;;;;;;;7796186;22;24405;-83
2024/03/10 15:48:35;;;;;;;1.73;1.50;;;;;;;;;;7796272;22;24424;-82
2024/03/10 15:51:37;;;;;;;1.92;1.70;;;;;;;;;;7796078;22;24382;-84
2024/03/10 15:54:40;;;;;;;122.07;60.95;;;;;;;;;;7798608;22;24608;-84
2024/03/10 15:57:43;;;;;;;77.82;38.50;;;;;;;;;;7798588;22;24440;-83
2024/03/10 16:00:44;;;;;;;8.70;5.57;;;;;;;;;;7796454;22;24374;-83
2024/03/10 16:03:52;;;;;;;191.27;98.78;;;;;;;;;;7795739;22;24390;-83
2024/03/10 16:06:54;;;;;;;42.83;21.73;;;;;;;;;;7795060;22;24774;-84
2024/03/10 16:09:56;;;;;;;41.30;21.52;;;;;;;;;;7795499;22;24592;-84
2024/03/10 16:12:59;;;;;;;1.77;1.40;;;;;;;;;;7795627;22;25028;-83
2024/03/10 16:16:02;;;;;;;1.70;1.45;;;;;;;;;;7795814;22;24774;-83
2024/03/10 16:19:03;;;;;;;1.90;1.30;;;;;;;;;;7794579;22;24432;-83
2024/03/10 16:22:05;;;;;;;1.40;1.30;;;;;;;;;;7795108;22;24430;-83
2024/03/10 16:25:08;;;;;;;1.30;1.08;;;;;;;;;;7795010;22;24445;-83
2024/03/10 16:28:11;;;;;;;1.02;0.90;;;;;;;;;;7794812;22;24421;-83
2024/03/10 16:31:13;;;;;;;1.25;0.90;;;;;;;;;;7794513;22;24754;-82
2024/03/10 16:34:15;;;;;;;1.30;1.00;;;;;;;;;;7794717;22;24389;-83
2024/03/10 16:37:25;;;;;;;1.60;0.73;;;;;;;;;;7794593;22;24620;-83
2024/03/10 16:40:27;;;;;;;1.13;0.80;;;;;;;;;;7793971;22;24404;-83
2024/03/10 16:43:30;;;;;;;1.10;0.80;;;;;;;;;;7795403;22;24394;-83
2024/03/10 16:46:32;;;;;;;1.35;1.02;;;;;;;;;;7795038;22;24848;-83
2024/03/10 16:49:33;;;;;;;1.42;1.00;;;;;;;;;;7794750;22;24631;-83
2024/03/10 16:52:35;;;;;;;1.38;1.00;;;;;;;;;;7794771;22;24450;-83
2024/03/10 16:55:38;;;;;;;1.30;0.90;;;;;;;;;;7794360;22;24801;-83
2024/03/10 16:58:43;;;;;;;1.48;1.00;;;;;;;;;;7794926;22;24757;-82
2024/03/10 17:01:45;;;;;;;1.27;0.90;;;;;;;;;;7795442;22;24413;-83
2024/03/10 17:04:47;;;;;;;1.30;1.00;;;;;;;;;;7794855;22;24393;-82
2024/03/10 17:07:51;;;;;;;1.60;1.07;;;;;;;;;;7794386;22;24385;-82
2024/03/10 17:10:55;;;;;;;1.30;0.90;;;;;;;;;;7793943;22;24484;-82
2024/03/10 17:13:58;;;;;;;1.73;1.10;;;;;;;;;;7794099;22;24627;-83
2024/03/10 17:17:00;;;;;;;1.50;1.20;;;;;;;;;;7794061;22;24378;-83
2024/03/10 17:20:06;;;;;;;2.60;1.20;;;;;;;;;;7793922;22;24385;-83
2024/03/10 17:23:07;;;;;;;2.08;1.20;;;;;;;;;;7795258;22;24803;-83
2024/03/10 17:26:11;;;;;;;2.00;1.40;;;;;;;;;;7795232;22;24755;-83
2024/03/10 17:29:15;;;;;;;2.13;1.40;;;;;;;;;;7794817;22;24409;-83
2024/03/10 17:32:17;;;;;;;2.30;1.40;;;;;;;;;;7794057;22;24775;-83
2024/03/10 17:35:19;;;;;;;3.10;1.40;;;;;;;;;;7794397;22;24394;-83
2024/03/10 17:38:22;;;;;;;2.70;1.77;;;;;;;;;;7794351;22;24378;-82
2024/03/10 17:41:24;;;;;;;3.05;1.80;;;;;;;;;;7793703;22;24469;-83
2024/03/10 17:44:27;;;;;;;1.90;1.40;;;;;;;;;;7794231;22;24756;-83
2024/03/10 17:47:29;;;;;;;1.98;1.50;;;;;;;;;;7793863;22;24470;-82
2024/03/10 17:50:35;;;;;;;2.00;1.50;;;;;;;;;;7789054;22;24381;-82
2024/03/10 17:53:36;;;;;;;2.10;1.60;;;;;;;;;;7789932;22;25005;-82
2024/03/10 17:56:38;;;;;;;2.20;1.70;;;;;;;;;;7788187;22;24615;-83
2024/03/10 17:59:41;;;;;;;2.08;1.60;;;;;;;;;;7790285;22;24764;-83
2024/03/10 18:02:45;;;;;;;4.60;1.70;;;;;;;;;;7790808;22;24378;-83
2024/03/10 18:05:47;;;;;;;3.20;1.67;;;;;;;;;;7788579;22;24638;-83
2024/03/10 18:08:49;;;;;;;2.83;1.80;;;;;;;;;;7787997;22;24521;-83
2024/03/10 18:11:53;;;;;;;2.30;1.40;;;;;;;;;;7788299;22;24461;-83
2024/03/10 18:14:56;;;;;;;2.97;1.80;;;;;;;;;;7788937;22;24420;-84
2024/03/10 18:17:59;;;;;;;3.30;1.75;;;;;;;;;;7786573;22;24390;-83
2024/03/10 18:21:12;;;;;;;3.40;1.90;;;;;;;;;;7787267;22;24825;-83
2024/03/10 18:24:14;;;;;;;3.83;1.90;;;;;;;;;;7788100;22;24716;-83
2024/03/10 18:27:16;;;;;;;2.90;2.03;;;;;;;;;;7788525;22;24386;-83
2024/03/10 18:30:19;;;;;;;3.83;2.13;;;;;;;;;;7787340;22;24385;-83